Time;durP1;ratioP1;P1;durP2;ratioP2;P2;SDS_P1;SDS_P2;PMS_P1;PMS_P2;Temp;Humidity;BMP_temperature;BMP_pressure;BME280_temperature;BME280_humidity;BME280_pressure;Samples;Min_cycle;Max_cycle;Signal;HPM_P1;HPM_P2
2022/06/17 00:01:28;;;;;;;17.58;13.90;;;14.80;99.90;;;;;;4806473;29;20077;-86
2022/06/17 00:03:54;;;;;;;21.08;15.57;;;;;;;;;;4835839;29;20095;-86
2022/06/17 00:06:22;;;;;;;17.95;15.25;;;14.70;99.90;;;;;;4821003;29;20069;-87
2022/06/17 00:08:51;;;;;;;19.88;16.48;;;14.60;99.90;;;;;;4806003;29;20043;-86
2022/06/17 00:11:32;;;;;;;24.52;16.60;;;14.80;99.90;;;;;;4805924;29;20046;-87
2022/06/17 00:13:58;;;;;;;18.08;14.63;;;;;;;;;;4804711;29;20057;-86
2022/06/17 00:16:25;;;;;;;16.27;13.90;;;14.90;99.90;;;;;;4790015;29;20054;-86
2022/06/17 00:18:51;;;;;;;19.27;14.32;;;;;;;;;;4820127;29;20047;-86
2022/06/17 00:21:25;;;;;;;18.40;14.18;;;14.60;99.90;;;;;;4805109;29;20199;-87
2022/06/17 00:23:51;;;;;;;18.38;13.85;;;;;;;;;;4836000;29;20055;-86
2022/06/17 00:26:17;;;;;;;20.83;13.60;;;;;;;;;;4805613;29;20050;-87
2022/06/17 00:28:43;;;;;;;14.27;12.18;;;;;;;;;;4789866;29;20047;-86
2022/06/17 00:31:09;;;;;;;16.63;12.90;;;;;;;;;;4804562;29;20184;-87
2022/06/17 00:33:35;;;;;;;15.48;13.70;;;;;;;;;;4775048;30;20059;-87
2022/06/17 00:36:01;;;;;;;16.70;13.43;;;;;;;;;;4802238;29;20047;-87
2022/06/17 00:38:32;;;;;;;15.63;13.93;;;14.70;99.90;;;;;;4817899;29;20440;-87
2022/06/17 00:41:20;;;;;;;16.77;12.13;;;14.60;99.90;;;;;;4789776;29;20045;-87
2022/06/17 00:43:46;;;;;;;16.55;12.00;;;;;;;;;;4803667;29;20050;-87
2022/06/17 00:46:34;;;;;;;18.17;12.20;;;14.40;99.90;;;;;;4805445;29;20065;-87
2022/06/17 00:49:18;;;;;;;14.02;11.90;;;14.50;99.90;;;;;;4805271;29;20089;-87
2022/06/17 00:51:54;;;;;;;16.02;13.10;;;14.60;99.90;;;;;;4819775;29;20047;-87
2022/06/17 00:54:25;;;;;;;17.05;12.63;;;14.50;99.90;;;;;;4804558;29;20461;-87
2022/06/17 00:56:52;;;;;;;15.65;11.52;;;14.60;99.90;;;;;;4820220;29;20049;-88
2022/06/17 00:59:18;;;;;;;14.45;12.18;;;;;;;;;;4805077;29;20050;-87
2022/06/17 01:02:01;;;;;;;15.82;11.00;;;14.40;99.90;;;;;;4805375;29;20046;-87
2022/06/17 01:04:44;;;;;;;14.85;11.32;;;14.60;99.90;;;;;;4820109;29;20078;-87
2022/06/17 01:07:23;;;;;;;16.85;11.40;;;14.30;99.90;;;;;;4819112;29;20055;-87
2022/06/17 01:09:57;;;;;;;11.20;9.93;;;14.40;99.90;;;;;;4804239;29;20051;-88
2022/06/17 01:12:30;;;;;;;14.90;10.32;;;14.40;99.90;;;;;;4820208;29;20062;-87
2022/06/17 01:14:57;;;;;;;13.73;11.05;;;;;;;;;;4834948;29;20051;-87
2022/06/17 01:17:23;;;;;;;12.82;11.23;;;;;;;;;;4789671;29;20552;-87
2022/06/17 01:19:55;;;;;;;12.77;10.98;;;14.60;99.90;;;;;;4787561;29;20069;-87
2022/06/17 01:22:28;;;;;;;14.73;10.75;;;;;;;;;;4820096;29;20401;-87
2022/06/17 01:25:07;;;;;;;16.92;10.75;;;14.60;99.90;;;;;;4804680;29;20075;-87
2022/06/17 01:27:35;;;;;;;11.90;9.80;;;;;;;;;;4818853;29;20078;-87
2022/06/17 01:30:01;;;;;;;14.65;11.00;;;;;;;;;;4834733;29;20059;-87
2022/06/17 01:32:32;;;;;;;17.50;11.32;;;14.40;99.90;;;;;;4819646;29;20110;-88
2022/06/17 01:35:00;;;;;;;15.30;11.63;;;;;;;;;;4804843;29;20189;-87
2022/06/17 01:37:28;;;;;;;14.30;10.75;;;14.40;99.90;;;;;;4819146;29;20191;-86
2022/06/17 01:39:54;;;;;;;18.08;11.00;;;;;;;;;;4788860;29;20054;-87
2022/06/17 01:42:20;;;;;;;11.43;9.93;;;;;;;;;;4789251;29;20497;-87
2022/06/17 01:44:46;;;;;;;11.82;10.27;;;;;;;;;;4788987;29;20050;-88
2022/06/17 01:47:20;;;;;;;16.13;10.25;;;14.30;99.90;;;;;;4789091;29;20069;-87
2022/06/17 01:49:50;;;;;;;12.43;11.13;;;14.40;99.90;;;;;;4833720;29;20176;-87
2022/06/17 01:52:32;;;;;;;12.35;10.30;;;14.60;99.90;;;;;;4819452;29;20061;-87
2022/06/17 01:55:01;;;;;;;13.90;10.77;;;;;;;;;;4804264;29;20526;-87
2022/06/17 01:57:35;;;;;;;16.58;11.60;;;14.50;99.90;;;;;;4804411;29;20086;-87
2022/06/17 02:00:10;;;;;;;13.43;10.88;;;14.40;99.90;;;;;;4802855;29;20458;-87
2022/06/17 02:02:37;;;;;;;12.57;10.65;;;14.30;99.90;;;;;;4803864;29;20186;-87
2022/06/17 02:05:07;;;;;;;14.80;10.82;;;14.30;99.90;;;;;;4803976;29;20057;-87
2022/06/17 02:07:52;;;;;;;16.33;11.25;;;14.60;99.90;;;;;;4803815;29;20050;-87
2022/06/17 02:10:18;;;;;;;13.43;10.93;;;;;;;;;;4833585;29;20062;-86
2022/06/17 02:12:44;;;;;;;13.32;10.20;;;;;;;;;;4803764;29;20043;-86
2022/06/17 02:15:11;;;;;;;12.88;10.70;;;14.50;99.90;;;;;;4788494;29;20059;-87
2022/06/17 02:17:41;;;;;;;14.90;10.13;;;;;;;;;;4834094;29;20051;-87
2022/06/17 02:20:08;;;;;;;12.30;10.05;;;;;;;;;;4802641;29;20051;-87
2022/06/17 02:22:35;;;;;;;20.63;10.95;;;;;;;;;;4803885;29;20480;-87
2022/06/17 02:25:06;;;;;;;13.52;11.13;;;14.20;99.90;;;;;;4788955;29;20403;-87
2022/06/17 02:27:33;;;;;;;14.30;10.43;;;;;;;;;;4803913;29;20134;-87
2022/06/17 02:30:00;;;;;;;12.20;9.45;;;;;;;;;;4787753;29;20047;-88
2022/06/17 02:32:26;;;;;;;13.40;10.05;;;;;;;;;;4803420;29;20057;-87
2022/06/17 02:34:52;;;;;;;12.23;10.05;;;;;;;;;;4788970;29;20046;-87
2022/06/17 02:37:19;;;;;;;13.07;10.05;;;;;;;;;;4788504;29;20062;-87
2022/06/17 02:39:47;;;;;;;12.85;9.75;;;;;;;;;;4787958;29;20090;-87
2022/06/17 02:42:22;;;;;;;11.70;10.50;;;14.10;99.90;;;;;;4788319;29;20080;-87
2022/06/17 02:44:53;;;;;;;11.00;9.73;;;14.20;99.90;;;;;;4803792;29;20509;-87
2022/06/17 02:47:19;;;;;;;12.32;10.13;;;;;;;;;;4787442;29;20067;-88
2022/06/17 02:49:46;;;;;;;11.05;9.70;;;14.20;99.90;;;;;;4785772;30;20055;-87
2022/06/17 02:52:26;;;;;;;11.85;9.00;;;14.00;99.90;;;;;;4772148;30;20063;-87
2022/06/17 02:54:55;;;;;;;11.68;8.50;;;;;;;;;;4790459;30;20093;-87
2022/06/17 02:57:26;;;;;;;11.13;9.88;;;;;;;;;;4759408;30;20047;-89
2022/06/17 03:00:01;;;;;;;11.52;8.85;;;;;;;;;;4772450;30;20055;-88
2022/06/17 03:02:36;;;;;;;13.85;8.93;;;;;;;;;;4758123;30;20509;-87
2022/06/17 03:05:03;;;;;;;11.88;9.30;;;14.10;99.90;;;;;;4758973;30;20050;-88
2022/06/17 03:07:31;;;;;;;15.55;10.25;;;;;;;;;;4773765;30;20054;-88
2022/06/17 03:09:57;;;;;;;13.30;9.65;;;;;;;;;;4790032;30;20047;-88
2022/06/17 03:12:27;;;;;;;12.32;10.07;;;14.00;99.90;;;;;;4788538;30;20064;-89
2022/06/17 03:15:04;;;;;;;15.98;10.07;;;;;;;;;;4769184;30;20052;-89
2022/06/17 03:17:31;;;;;;;12.38;10.18;;;;;;;;;;4741141;30;20105;-89
2022/06/17 03:19:59;;;;;;;10.63;9.40;;;;;;;;;;4756235;30;20056;-89
2022/06/17 03:22:26;;;;;;;10.40;8.93;;;;;;;;;;4784160;30;20078;-88
2022/06/17 03:25:10;;;;;;;13.23;10.07;;;;;;;;;;4790407;30;20048;-89
2022/06/17 03:27:47;;;;;;;10.20;9.13;;;;;;;;;;4790061;30;20058;-89
2022/06/17 03:30:16;;;;;;;13.13;8.68;;;;;;;;;;4773811;30;20387;-90
2022/06/17 03:32:46;;;;;;;11.88;9.45;;;14.20;99.90;;;;;;4788941;30;20116;-89
2022/06/17 03:35:21;;;;;;;13.10;9.00;;;;;;;;;;4773476;30;20102;-88
2022/06/17 03:37:47;;;;;;;13.68;9.25;;;;;;;;;;4789690;30;20052;-87
2022/06/17 03:40:18;;;;;;;11.27;9.15;;;;;;;;;;4789772;30;20051;-89
2022/06/17 03:43:08;;;;;;;10.77;8.82;;;14.00;99.90;;;;;;4757739;30;20043;-90
2022/06/17 03:45:51;;;;;;;10.35;9.00;;;14.20;99.90;;;;;;4789438;29;20044;-87
2022/06/17 03:48:23;;;;;;;9.88;8.75;;;;;;;;;;4773359;30;20386;-87
2022/06/17 03:50:49;;;;;;;10.15;8.55;;;;;;;;;;4773313;30;20051;-87
2022/06/17 03:53:29;;;;;;;11.48;8.85;;;;;;;;;;4772116;30;20390;-87
2022/06/17 03:56:02;;;;;;;9.45;8.35;;;13.90;99.90;;;;;;4773043;30;20067;-86
2022/06/17 03:58:28;;;;;;;9.53;8.50;;;;;;;;;;4773086;30;20576;-86
2022/06/17 04:00:58;;;;;;;9.30;8.00;;;;;;;;;;4789271;30;20083;-86
2022/06/17 04:03:26;;;;;;;8.70;7.63;;;;;;;;;;4787827;29;20385;-87
2022/06/17 04:06:00;;;;;;;9.50;7.78;;;14.30;99.90;;;;;;4772657;30;20047;-86
2022/06/17 04:08:26;;;;;;;13.00;8.15;;;;;;;;;;4762420;30;20055;-87
2022/06/17 04:10:52;;;;;;;10.85;7.88;;;;;;;;;;4758324;30;20112;-87
2022/06/17 04:13:20;;;;;;;9.70;8.13;;;;;;;;;;4788553;30;20188;-86
2022/06/17 04:16:12;;;;;;;10.70;7.07;;;14.30;99.90;;;;;;4788973;30;20062;-88
2022/06/17 04:18:38;;;;;;;11.15;7.68;;;;;;;;;;4802744;29;20067;-86
2022/06/17 04:21:07;;;;;;;9.75;6.45;;;14.10;99.90;;;;;;4757085;30;20556;-86
2022/06/17 04:23:35;;;;;;;12.15;7.18;;;14.40;99.90;;;;;;4787641;30;20078;-88
2022/06/17 04:26:05;;;;;;;11.27;7.35;;;;;;;;;;4789146;30;20043;-89
2022/06/17 04:28:52;;;;;;;9.77;6.97;;;;;;;;;;4772931;30;20433;-88
2022/06/17 04:31:21;;;;;;;13.02;6.75;;;14.50;99.90;;;;;;4771570;30;20062;-86
2022/06/17 04:34:00;;;;;;;10.27;7.03;;;;;;;;;;4788699;30;20060;-88
2022/06/17 04:36:30;;;;;;;11.35;6.90;;;14.50;99.90;;;;;;4788815;30;20078;-86
2022/06/17 04:39:14;;;;;;;9.00;6.55;;;14.70;99.90;;;;;;4772697;30;20165;-87
2022/06/17 04:41:43;;;;;;;10.65;6.95;;;14.70;99.90;;;;;;4771464;30;20130;-87
2022/06/17 04:44:12;;;;;;;9.48;7.72;;;14.70;99.90;;;;;;4772407;30;20497;-88
2022/06/17 04:46:50;;;;;;;10.05;6.85;;;;;;;;;;4788288;29;20063;-87
2022/06/17 04:49:27;;;;;;;11.65;8.18;;;;;;;;;;4787648;30;20084;-86
2022/06/17 04:51:55;;;;;;;8.02;6.85;;;;;;;;;;4755414;30;20073;-87
2022/06/17 04:54:21;;;;;;;10.25;7.32;;;;;;;;;;4788148;30;20496;-86
2022/06/17 04:56:49;;;;;;;12.50;7.50;;;;;;;;;;4788334;30;20087;-87
2022/06/17 04:59:30;;;;;;;12.98;7.88;;;;;;;;;;4772214;30;20501;-87
2022/06/17 05:01:57;;;;;;;15.20;7.82;;;;;;;;;;4787346;30;20096;-87
2022/06/17 05:04:24;;;;;;;10.85;7.25;;;;;;;;;;4772186;30;20047;-85
2022/06/17 05:06:50;;;;;;;8.45;7.10;;;;;;;;;;4757567;30;20051;-87
2022/06/17 05:09:28;;;;;;;9.55;7.25;;;15.10;99.90;;;;;;4771919;30;20409;-86
2022/06/17 05:12:01;;;;;;;10.63;7.30;;;15.20;99.90;;;;;;4771559;30;20052;-86
2022/06/17 05:14:30;;;;;;;10.23;7.40;;;;;;;;;;4771370;30;20056;-86
2022/06/17 05:16:57;;;;;;;9.35;7.68;;;15.30;99.90;;;;;;4785869;30;20058;-87
2022/06/17 05:19:23;;;;;;;10.52;7.50;;;;;;;;;;4774447;30;20105;-87
2022/06/17 05:21:49;;;;;;;9.48;7.53;;;;;;;;;;4771047;30;20055;-85
2022/06/17 05:24:15;;;;;;;11.48;7.78;;;;;;;;;;4757277;30;20043;-86
2022/06/17 05:26:41;;;;;;;13.25;8.35;;;;;;;;;;4788465;30;20077;-87
2022/06/17 05:29:09;;;;;;;14.20;8.07;;;15.40;99.90;;;;;;4772058;30;20063;-86
2022/06/17 05:31:35;;;;;;;8.98;7.70;;;;;;;;;;4771197;30;20142;-85
2022/06/17 05:34:02;;;;;;;11.35;8.82;;;;;;;;;;4772264;30;20055;-84
2022/06/17 05:36:28;;;;;;;12.68;7.80;;;;;;;;;;4787613;30;20501;-87
2022/06/17 05:38:54;;;;;;;9.20;8.27;;;;;;;;;;4771281;30;20566;-88
2022/06/17 05:41:28;;;;;;;11.70;8.15;;;15.40;99.90;;;;;;4756080;30;20047;-84
2022/06/17 05:43:54;;;;;;;10.60;7.80;;;;;;;;;;4771517;30;20051;-85
2022/06/17 05:46:21;;;;;;;10.00;7.75;;;;;;;;;;4780728;29;20059;-84
2022/06/17 05:48:50;;;;;;;11.52;8.13;;;;;;;;;;4805617;29;20416;-87
2022/06/17 05:51:16;;;;;;;9.68;8.60;;;;;;;;;;4804354;29;20094;-86
2022/06/17 05:53:42;;;;;;;9.38;7.65;;;;;;;;;;4782524;29;20051;-86
2022/06/17 05:56:08;;;;;;;13.07;7.85;;;;;;;;;;4803398;29;20508;-84
2022/06/17 05:58:35;;;;;;;10.88;8.20;;;;;;;;;;4788945;29;20086;-85
2022/06/17 06:01:01;;;;;;;19.02;8.60;;;;;;;;;;4788968;29;20058;-87
2022/06/17 06:03:28;;;;;;;8.80;7.93;;;16.00;99.90;;;;;;4784739;30;20054;-88
2022/06/17 06:05:54;;;;;;;10.15;8.85;;;;;;;;;;4786092;30;20063;-85
2022/06/17 06:08:20;;;;;;;14.68;8.23;;;;;;;;;;4816267;29;20401;-88
2022/06/17 06:10:46;;;;;;;12.55;8.38;;;;;;;;;;4800928;29;20509;-84
2022/06/17 06:13:22;;;;;;;11.63;8.25;;;16.30;99.90;;;;;;4806923;29;20051;-85
2022/06/17 06:15:50;;;;;;;12.60;8.95;;;16.20;99.90;;;;;;4771083;30;20112;-87
2022/06/17 06:18:21;;;;;;;14.00;8.52;;;16.20;99.90;;;;;;4816121;29;20083;-87
2022/06/17 06:20:48;;;;;;;9.75;7.45;;;16.20;99.90;;;;;;4801036;29;20051;-85
2022/06/17 06:23:14;;;;;;;10.52;8.02;;;;;;;;;;4811255;29;20097;-87
2022/06/17 06:25:40;;;;;;;18.02;8.55;;;;;;;;;;4802825;29;20078;-86
2022/06/17 06:28:16;;;;;;;12.70;9.07;;;;;;;;;;4803649;29;20047;-84
2022/06/17 06:30:42;;;;;;;11.57;8.02;;;;;;;;;;4788894;29;20058;-84
2022/06/17 06:33:09;;;;;;;14.40;7.63;;;16.80;99.90;;;;;;4803862;29;20094;-87
2022/06/17 06:35:37;;;;;;;12.00;7.85;;;16.60;99.90;;;;;;4817676;29;20051;-85
2022/06/17 06:38:04;;;;;;;12.07;8.10;;;;;;;;;;4818256;29;20428;-84
2022/06/17 06:40:31;;;;;;;13.88;8.88;;;16.90;99.90;;;;;;4834042;29;20134;-84
2022/06/17 06:42:57;;;;;;;9.43;7.85;;;;;;;;;;4833824;29;20137;-84
2022/06/17 06:45:29;;;;;;;8.70;7.32;;;17.00;99.90;;;;;;4816892;29;20053;-85
2022/06/17 06:47:56;;;;;;;14.73;9.57;;;17.10;99.90;;;;;;4755719;30;20469;-87
2022/06/17 06:50:24;;;;;;;11.65;8.27;;;17.10;99.90;;;;;;4770567;30;20043;-88
2022/06/17 06:52:50;;;;;;;9.93;8.35;;;;;;;;;;4777917;29;20096;-87
2022/06/17 06:55:17;;;;;;;12.15;8.80;;;;;;;;;;4773368;29;20494;-87
2022/06/17 06:57:52;;;;;;;8.75;7.25;;;17.20;99.90;;;;;;4771108;30;20063;-85
2022/06/17 07:00:40;;;;;;;10.85;8.32;;;17.50;99.90;;;;;;4784507;30;20119;-85
2022/06/17 07:03:06;;;;;;;10.05;7.85;;;;;;;;;;4755026;30;20150;-84
2022/06/17 07:05:34;;;;;;;9.27;8.35;;;17.50;99.90;;;;;;4769968;30;20047;-83
2022/06/17 07:08:00;;;;;;;9.68;7.97;;;;;;;;;;4769520;30;20455;-84
2022/06/17 07:10:29;;;;;;;12.90;7.47;;;17.70;99.90;;;;;;4755836;30;20051;-84
2022/06/17 07:12:55;;;;;;;12.45;7.28;;;;;;;;;;4800429;29;20469;-84
2022/06/17 07:15:22;;;;;;;10.25;7.80;;;17.50;99.90;;;;;;4755669;30;20124;-85
2022/06/17 07:18:15;;;;;;;11.55;7.70;;;17.80;99.90;;;;;;4769480;30;20055;-85
2022/06/17 07:20:46;;;;;;;9.30;7.55;;;18.00;99.90;;;;;;4785554;30;20405;-84
2022/06/17 07:23:18;;;;;;;7.75;6.95;;;18.00;99.90;;;;;;4784954;30;20055;-84
2022/06/17 07:25:45;;;;;;;13.68;7.38;;;18.10;99.90;;;;;;4770327;30;20503;-85
2022/06/17 07:28:17;;;;;;;8.32;7.47;;;18.20;99.90;;;;;;4784045;30;20051;-85
2022/06/17 07:30:45;;;;;;;8.98;8.10;;;18.10;99.90;;;;;;4765143;30;20051;-84
2022/06/17 07:33:12;;;;;;;9.52;7.57;;;18.40;99.90;;;;;;4755597;30;20094;-84
2022/06/17 07:35:39;;;;;;;7.80;7.00;;;18.20;99.90;;;;;;4755212;30;20051;-84
2022/06/17 07:40:50;;;;;;;10.45;7.32;;;;;;;;;;4773253;30;20059;-85
2022/06/17 07:43:18;;;;;;;11.05;8.20;;;18.70;99.90;;;;;;4759722;30;20051;-88
2022/06/17 07:45:44;;;;;;;9.85;6.60;;;;;;;;;;4773909;29;20189;-86
2022/06/17 07:48:14;;;;;;;11.73;7.15;;;18.60;99.90;;;;;;4772952;30;20450;-87
2022/06/17 07:50:41;;;;;;;9.38;6.63;;;;;;;;;;4773315;30;20142;-86
2022/06/17 07:53:08;;;;;;;9.25;6.72;;;19.10;99.90;;;;;;4767714;29;20412;-86
2022/06/17 07:55:34;;;;;;;9.73;6.97;;;;;;;;;;4776163;29;20423;-88
2022/06/17 07:58:00;;;;;;;10.38;6.68;;;;;;;;;;4791689;29;20450;-87
2022/06/17 08:00:30;;;;;;;9.18;7.03;;;19.10;99.90;;;;;;4769767;30;20140;-86
2022/06/17 08:02:56;;;;;;;6.88;5.95;;;;;;;;;;4773837;30;20051;-87
2022/06/17 08:05:22;;;;;;;12.65;6.90;;;;;;;;;;4758438;30;20133;-87
2022/06/17 08:07:49;;;;;;;8.27;6.93;;;19.50;99.90;;;;;;4758768;30;20055;-85
2022/06/17 08:10:17;;;;;;;7.03;6.43;;;19.40;99.90;;;;;;4772805;30;20048;-88
2022/06/17 08:12:44;;;;;;;8.18;6.75;;;;;;;;;;4773801;30;20051;-88
2022/06/17 08:15:12;;;;;;;7.20;6.47;;;19.70;99.90;;;;;;4758812;30;20196;-86
2022/06/17 08:17:39;;;;;;;8.43;7.15;;;19.70;99.90;;;;;;4773445;30;20138;-87
2022/06/17 08:20:09;;;;;;;8.13;7.22;;;19.90;99.90;;;;;;4772501;30;20043;-85
2022/06/17 08:22:37;;;;;;;7.80;6.90;;;20.10;99.90;;;;;;4778176;29;20047;-87
2022/06/17 08:25:02;;;;;;;8.18;6.25;;;20.10;99.90;;;;;;4775640;29;20527;-87
2022/06/17 08:27:29;;;;;;;10.77;7.00;;;;;;;;;;4805699;29;20100;-87
2022/06/17 08:29:55;;;;;;;7.65;6.50;;;;;;;;;;4768532;30;20513;-86
2022/06/17 08:35:05;;;;;;;14.13;7.28;;;20.50;99.90;;;;;;4772851;30;20058;-85
2022/06/17 08:37:32;;;;;;;10.93;5.40;;;;;;;;;;4772780;30;20409;-86
2022/06/17 08:39:58;;;;;;;12.90;6.15;;;;;;;;;;4756478;30;20534;-88
2022/06/17 08:42:52;;;;;;;6.47;4.70;;;20.70;99.90;;;;;;4772596;30;20394;-86
2022/06/17 08:45:38;;;;;;;8.00;5.73;;;20.60;99.90;;;;;;4771270;30;20114;-84
2022/06/17 08:48:36;;;;;;;10.93;6.78;;;20.70;99.90;;;;;;4787099;30;20505;-84
2022/06/17 08:51:33;;;;;;;7.95;6.03;;;20.80;99.90;;;;;;4768320;30;20051;-84
2022/06/17 08:54:41;;;;;;;8.55;5.63;;;20.70;99.90;;;;;;4787916;29;20086;-84
2022/06/17 08:57:33;;;;;;;9.48;6.00;;;20.80;99.90;;;;;;4805037;29;20413;-84
2022/06/17 09:00:12;;;;;;;11.10;6.68;;;21.00;99.90;;;;;;4804536;29;20050;-84
2022/06/17 09:02:59;;;;;;;10.38;6.40;;;21.10;99.90;;;;;;4770729;30;20058;-84
2022/06/17 09:06:01;;;;;;;8.45;5.25;;;21.10;99.90;;;;;;4769252;30;20143;-84
2022/06/17 09:09:06;;;;;;;9.45;5.45;;;21.00;99.90;;;;;;4784056;30;20050;-86
2022/06/17 09:11:51;;;;;;;8.05;5.95;;;21.10;99.90;;;;;;4770239;30;20062;-84
2022/06/17 09:14:23;;;;;;;7.63;5.72;;;21.10;99.90;;;;;;4755324;30;20056;-84
2022/06/17 09:17:10;;;;;;;7.53;5.32;;;21.30;99.90;;;;;;4769911;30;20118;-84
2022/06/17 09:19:43;;;;;;;6.95;6.25;;;21.00;99.90;;;;;;4769555;30;20081;-83
2022/06/17 09:22:25;;;;;;;7.00;6.30;;;21.20;99.90;;;;;;4755802;29;20048;-83
2022/06/17 09:24:53;;;;;;;10.63;7.47;;;21.20;99.90;;;;;;4771900;30;20045;-85
2022/06/17 09:27:32;;;;;;;10.68;6.28;;;21.50;99.90;;;;;;4771222;30;20497;-84
2022/06/17 09:30:08;;;;;;;7.97;6.05;;;21.60;99.90;;;;;;4770817;30;20047;-84
2022/06/17 09:32:48;;;;;;;6.90;5.07;;;21.60;99.90;;;;;;4770473;30;20413;-85
2022/06/17 09:35:14;;;;;;;13.48;5.90;;;;;;;;;;4787182;30;20073;-87
2022/06/17 09:37:58;;;;;;;6.50;5.75;;;21.90;99.90;;;;;;4785464;30;20047;-86
2022/06/17 09:40:31;;;;;;;;;;;21.80;99.90;;;;;;4792466;29;20055;-86
2022/06/17 09:42:57;;;;;;;6.78;5.68;;;;;;;;;;4787037;29;20411;-87
2022/06/17 09:45:33;;;;;;;7.00;5.65;;;21.90;99.90;;;;;;4785236;29;20066;-86
2022/06/17 09:48:11;;;;;;;9.57;5.28;;;21.80;99.90;;;;;;4780985;30;20138;-86
2022/06/17 09:50:44;;;;;;;10.40;5.30;;;22.10;99.90;;;;;;4782156;30;20051;-88
2022/06/17 09:53:10;;;;;;;11.05;5.97;;;;;;;;;;4786762;30;20122;-87
2022/06/17 09:55:41;;;;;;;8.52;5.72;;;22.10;99.90;;;;;;4755608;30;20202;-86
2022/06/17 09:58:30;;;;;;;9.05;5.30;;;22.10;99.90;;;;;;4742112;30;20091;-85
2022/06/17 10:00:57;;;;;;;7.53;5.13;;;22.20;99.90;;;;;;4714503;30;20057;-86
2022/06/17 10:03:32;;;;;;;9.77;5.38;;;22.40;99.90;;;;;;4700861;30;20168;-87
2022/06/17 10:06:06;;;;;;;9.23;5.85;;;22.20;99.90;;;;;;4700737;30;20439;-88
2022/06/17 10:08:53;;;;;;;10.68;5.05;;;22.20;99.90;;;;;;4700311;30;20412;-87
2022/06/17 10:11:29;;;;;;;7.60;4.93;;;22.40;99.90;;;;;;4714422;30;20061;-87
2022/06/17 10:14:13;;;;;;;6.32;5.05;;;22.20;99.90;;;;;;4698535;30;20044;-85
2022/06/17 10:19:40;;;;;;;6.97;5.07;;;22.10;99.90;;;;;;4714824;30;20057;-83
2022/06/17 10:22:35;;;;;;;6.32;5.00;;;22.30;99.90;;;;;;4701398;30;20057;-84
2022/06/17 10:25:22;;;;;;;7.10;4.97;;;22.40;99.90;;;;;;4706513;30;20182;-86
2022/06/17 10:27:48;;;;;;;9.23;5.05;;;22.50;99.90;;;;;;4708112;30;20286;-84
2022/06/17 10:30:32;;;;;;;13.70;5.55;;;22.60;99.90;;;;;;4712940;30;20060;-84
2022/06/17 10:32:58;;;;;;;9.13;5.03;;;22.50;99.90;;;;;;4697787;30;20061;-84
2022/06/17 10:35:36;;;;;;;8.77;5.47;;;22.60;99.90;;;;;;4705570;30;20202;-84
2022/06/17 10:38:05;;;;;;;8.52;5.80;;;22.80;99.90;;;;;;4745234;30;20071;-85
2022/06/17 10:40:34;;;;;;;13.32;6.32;;;22.60;99.90;;;;;;4769361;30;20070;-84
2022/06/17 10:43:04;;;;;;;9.60;6.45;;;22.80;99.90;;;;;;4769545;30;20066;-84
2022/06/17 10:45:30;;;;;;;9.93;6.47;;;23.00;99.90;;;;;;4777776;29;20047;-84
2022/06/17 10:48:11;;;;;;;10.30;6.28;;;22.70;99.90;;;;;;4770896;30;20518;-84
2022/06/17 10:50:37;;;;;;;9.00;6.60;;;;;;;;;;4789445;30;20047;-84
2022/06/17 10:53:28;;;;;;;14.07;6.85;;;23.00;99.90;;;;;;4781397;29;20061;-84
2022/06/17 10:55:58;;;;;;;7.50;6.80;;;23.20;99.90;;;;;;4773831;29;20078;-84
2022/06/17 10:58:32;;;;;;;9.27;7.15;;;23.10;99.90;;;;;;4757985;30;20134;-84
2022/06/17 11:01:03;;;;;;;11.75;7.35;;;23.20;99.90;;;;;;4773470;30;20051;-85
2022/06/17 11:03:40;;;;;;;7.68;6.88;;;23.50;99.90;;;;;;4772866;30;20112;-84
2022/06/17 11:06:15;;;;;;;9.13;6.80;;;23.40;99.90;;;;;;4771985;30;20142;-84
2022/06/17 11:08:49;;;;;;;10.27;8.48;;;23.40;99.90;;;;;;4769756;30;20127;-83
2022/06/17 11:14:23;;;;;;;10.10;7.00;;;23.70;99.90;;;;;;4774719;30;20052;-85
2022/06/17 11:16:49;;;;;;;8.40;6.85;;;23.70;99.90;;;;;;4785129;30;20086;-84
2022/06/17 11:19:18;;;;;;;8.45;6.05;;;23.80;99.90;;;;;;4774140;30;20798;-85
2022/06/17 11:21:52;;;;;;;7.45;6.55;;;23.80;99.90;;;;;;4770181;30;20055;-84
2022/06/17 11:24:22;;;;;;;;;;;23.50;99.90;;;;;;4758949;30;20043;-84
2022/06/17 11:27:03;;;;;;;12.45;6.00;;;24.40;99.90;;;;;;4756765;30;19997;-85
2022/06/17 11:29:42;;;;;;;9.10;7.00;;;24.10;99.90;;;;;;4749224;30;20070;-84
2022/06/17 11:32:20;;;;;;;6.30;5.65;;;24.10;99.90;;;;;;4771146;30;20050;-84
2022/06/17 11:34:58;;;;;;;10.88;5.28;;;24.20;99.90;;;;;;4752580;30;20047;-86
2022/06/17 11:37:38;;;;;;;7.00;5.35;;;24.20;99.90;;;;;;4760510;30;20134;-86
2022/06/17 11:40:18;;;;;;;8.13;5.32;;;24.20;99.90;;;;;;4750917;30;20067;-86
2022/06/17 11:42:54;;;;;;;11.07;5.60;;;24.90;99.90;;;;;;4750948;30;20059;-85
2022/06/17 11:45:44;;;;;;;7.43;5.40;;;24.80;99.90;;;;;;4756357;30;20047;-85
2022/06/17 11:48:09;;;;;;;7.72;4.55;;;25.00;99.90;;;;;;4773009;30;20159;-84
2022/06/17 11:50:40;;;;;;;8.55;5.13;;;25.50;99.90;;;;;;4772966;30;20564;-86
2022/06/17 11:53:14;;;;;;;8.55;4.35;;;25.30;99.90;;;;;;4777865;29;20581;-87
2022/06/17 11:55:46;;;;;;;5.88;4.53;;;25.30;99.90;;;;;;4789686;29;20086;-85
2022/06/17 11:58:14;;;;;;;5.72;4.57;;;25.20;99.90;;;;;;4776176;29;20042;-86
2022/06/17 12:00:46;;;;;;;5.15;4.38;;;25.40;99.90;;;;;;4784286;30;20122;-84
2022/06/17 12:03:15;;;;;;;5.38;3.53;;;25.90;99.90;;;;;;4753821;30;20047;-86
2022/06/17 12:05:42;;;;;;;6.35;3.95;;;25.60;99.90;;;;;;4797309;29;20054;-83
2022/06/17 12:08:46;;;;;;;9.02;4.18;;;25.60;99.90;;;;;;4772969;30;20093;-83
2022/06/17 12:11:19;;;;;;;6.28;4.10;;;25.60;99.90;;;;;;4755513;30;20138;-83
2022/06/17 12:13:49;;;;;;;7.47;4.10;;;25.60;99.90;;;;;;4769627;30;20163;-84
2022/06/17 12:16:24;;;;;;;6.47;3.55;;;26.50;99.90;;;;;;4766302;30;20501;-84
2022/06/17 12:18:54;;;;;;;11.30;3.65;;;28.00;99.90;;;;;;4785486;30;20039;-84
2022/06/17 12:21:28;;;;;;;6.75;3.33;;;25.80;99.90;;;;;;4782401;30;20051;-85
2022/06/17 12:24:30;;;;;;;3.85;3.47;;;26.10;99.90;;;;;;4799058;29;20450;-84
2022/06/17 12:27:02;;;;;;;5.60;3.13;;;25.90;99.90;;;;;;4783626;30;20135;-83
2022/06/17 12:29:36;;;;;;;6.82;3.70;;;27.00;99.90;;;;;;4784237;30;20055;-84
2022/06/17 12:32:14;;;;;;;26.05;5.25;;;26.20;99.90;;;;;;4791091;29;20501;-84
2022/06/17 12:34:59;;;;;;;3.90;2.67;;;26.30;99.90;;;;;;4756438;30;20044;-84
2022/06/17 12:37:45;;;;;;;4.65;3.53;;;26.30;99.90;;;;;;4762337;30;20050;-84
2022/06/17 12:40:49;;;;;;;3.97;2.50;;;26.50;99.90;;;;;;4766511;30;20058;-84
2022/06/17 12:43:36;;;;;;;4.82;2.50;;;26.00;99.90;;;;;;4756653;30;20055;-84
2022/06/17 12:46:06;;;;;;;7.50;3.83;;;26.20;99.90;;;;;;4774602;29;20071;-84
2022/06/17 12:53:13;;;;;;;3.42;3.10;;;26.40;99.90;;;;;;4803400;29;20051;-83
2022/06/17 12:55:07;;;;;;;6.57;3.70;;;26.30;99.90;;;;;;4820254;29;20047;-83
2022/06/17 12:57:36;;;;;;;4.75;3.13;;;26.30;99.90;;;;;;4834817;29;20058;-83
2022/06/17 13:00:16;;;;;;;3.97;3.22;;;26.30;99.90;;;;;;4819367;29;20053;-83
2022/06/17 13:03:04;;;;;;;6.40;3.17;;;26.50;99.90;;;;;;4789642;29;20489;-84
2022/06/17 13:05:43;;;;;;;5.00;3.15;;;26.20;99.90;;;;;;4787157;29;20566;-85
2022/06/17 13:08:35;;;;;;;4.60;3.28;;;26.30;99.90;;;;;;4790206;29;20632;-83
2022/06/17 13:11:16;;;;;;;6.20;2.88;;;26.40;99.90;;;;;;4803503;29;20042;-86
2022/06/17 13:14:04;;;;;;;4.38;2.85;;;26.10;99.90;;;;;;4820505;29;20107;-83
2022/06/17 13:17:05;;;;;;;9.77;3.58;;;26.30;99.90;;;;;;4803901;29;20507;-85
2022/06/17 13:19:38;;;;;;;4.82;3.03;;;26.00;99.90;;;;;;4818587;29;20066;-84
2022/06/17 13:22:25;;;;;;;8.73;2.85;;;26.00;99.90;;;;;;4789875;29;20148;-86
2022/06/17 13:25:19;;;;;;;10.05;3.60;;;25.90;99.90;;;;;;4801642;29;20498;-87
2022/06/17 13:27:56;;;;;;;6.43;3.10;;;26.20;99.90;;;;;;4823898;29;20096;-84
2022/06/17 13:30:32;;;;;;;8.73;3.75;;;26.20;99.90;;;;;;4825436;29;20046;-84
2022/06/17 13:33:34;;;;;;;6.78;3.20;;;26.20;99.90;;;;;;4799743;29;20081;-84
2022/06/17 13:36:40;;;;;;;5.63;2.65;;;26.20;99.90;;;;;;4801534;29;20066;-84
2022/06/17 13:39:22;;;;;;;3.05;2.42;;;26.40;99.90;;;;;;4792600;29;20424;-84
2022/06/17 13:42:00;;;;;;;4.57;3.38;;;26.20;99.90;;;;;;4805419;29;20050;-84
2022/06/17 13:44:44;;;;;;;6.32;3.20;;;26.50;99.90;;;;;;4802359;29;20043;-83
2022/06/17 13:47:36;;;;;;;6.38;3.05;;;26.10;99.90;;;;;;4787221;29;20066;-84
2022/06/17 13:50:08;;;;;;;3.45;2.60;;;26.60;99.90;;;;;;4763176;30;20063;-85
2022/06/17 13:52:57;;;;;;;4.53;3.25;;;26.60;99.90;;;;;;4772831;29;20051;-85
2022/06/17 13:55:30;;;;;;;6.43;2.95;;;26.80;99.90;;;;;;4754771;29;20142;-85
2022/06/17 13:58:10;;;;;;;4.60;2.60;;;27.10;99.90;;;;;;4753402;30;20091;-85
2022/06/17 14:00:47;;;;;;;6.47;2.85;;;27.10;99.90;;;;;;4782630;29;20482;-85
2022/06/17 14:03:16;;;;;;;11.95;3.60;;;27.00;99.90;;;;;;4768624;30;20051;-85
2022/06/17 14:06:01;;;;;;;3.33;2.97;;;27.60;99.90;;;;;;4770124;30;20055;-85